Terminal Aerodrome Forecast
Issued by NWS Des Moines, IA

Home | Current Version | Previous Version | Text Only | Print | Product List | Glossary On
Versions: 1 2 3 4 5 6 7 8 9 10 11 12 13 14 15 16 17 18 19 20 21 22 23 24 25 26 27 28 29 30 31 32 33 34 35 36 37 38 39 40 41 42 43 44 45 46
000
FTUS43 KDMX 260527
TAFDSM
TAF
KDSM 260527Z 2606/2706 17010KT P6SM OVC250
     FM261000 VRB04KT P6SM BKN050
     FM261400 34008KT 5SM BR SCT009 OVC018
     FM262000 36006KT 6SM BR SCT012 BKN025
     FM262300 01007KT 5SM -DZ BR BKN012 OVC020=

USA.gov is the U.S. government's official web portal to all federal, state and local government web resources and services.